Terminal Aerodrome Forecast
Issued by NWS Sterling, VA

Current Version | Previous Version | Text Only | Print | Product List | Glossary Off
Versions: 1 2 3 4 5 6 7 8 9 10 11 12 13 14 15

912
FTUS41 KLWX 132329
TAFMRB
TAF
KMRB 132329Z 1400/1424 20007KT P6SM -SN OVC040
     FM140100 14005KT 1SM -SN OVC040
     FM140200 15004KT P6SM -SN OVC060
     FM140600 20005KT P6SM OVC060
     FM141000 27007KT P6SM OVC050
     FM141200 30009KT P6SM FEW040 SCT080
     FM141500 32013G21KT P6SM FEW035 SCT040
     FM142000 31010KT P6SM FEW060 FEW250=

USA.gov is the U.S. government's official web portal to all federal, state and local government web resources and services.